createdAt,value
2023-12-10T00:01:32.555Z,6.40
2023-12-10T00:03:59.619Z,6.53
2023-12-10T00:06:26.681Z,6.54
2023-12-10T00:08:53.758Z,6.51
2023-12-10T00:11:20.693Z,6.39
2023-12-10T00:13:47.827Z,6.41
2023-12-10T00:16:15.019Z,6.35
2023-12-10T00:18:42.105Z,6.40
2023-12-10T00:21:13.729Z,6.34
2023-12-10T00:23:40.772Z,6.16
2023-12-10T00:26:07.817Z,6.07
2023-12-10T00:28:34.726Z,6.03
2023-12-10T00:31:01.752Z,5.94
2023-12-10T00:33:28.817Z,6.14
2023-12-10T00:35:55.863Z,6.09
2023-12-10T00:38:22.795Z,6.14
2023-12-10T00:40:49.710Z,6.09
2023-12-10T00:43:16.751Z,6.13
2023-12-10T00:45:44.241Z,6.01
2023-12-10T00:48:11.254Z,5.96
2023-12-10T00:50:38.309Z,5.93
2023-12-10T00:53:05.752Z,5.92
2023-12-10T00:55:32.819Z,6.03
2023-12-10T00:57:59.764Z,6.00
2023-12-10T01:00:26.829Z,6.14
2023-12-10T01:02:53.810Z,6.13
2023-12-10T01:05:20.894Z,5.96
2023-12-10T01:07:47.882Z,6.10
2023-12-10T01:10:14.832Z,6.18
2023-12-10T01:12:41.768Z,5.97
2023-12-10T01:15:08.967Z,6.02
2023-12-10T01:17:35.926Z,5.99
2023-12-10T01:20:04.055Z,6.06
2023-12-10T01:22:32.187Z,5.89
2023-12-10T01:25:01.900Z,5.93
2023-12-10T01:27:29.450Z,6.05
2023-12-10T01:29:56.630Z,6.19
2023-12-10T01:32:23.566Z,6.17
2023-12-10T01:34:50.729Z,6.22
2023-12-10T01:37:17.876Z,6.34
2023-12-10T01:39:44.942Z,6.24
2023-12-10T01:42:11.983Z,6.40
2023-12-10T01:44:39.013Z,6.41
2023-12-10T01:47:06.065Z,6.49
2023-12-10T01:49:33.542Z,6.51
2023-12-10T01:52:00.732Z,6.52
2023-12-10T01:54:27.708Z,6.66
2023-12-10T01:57:06.104Z,6.63
2023-12-10T01:59:36.377Z,6.47
2023-12-10T02:02:04.354Z,6.27
2023-12-10T02:04:31.512Z,6.12
2023-12-10T02:06:58.511Z,6.36
2023-12-10T02:09:25.464Z,6.17
2023-12-10T02:11:54.156Z,6.10
2023-12-10T02:14:21.109Z,6.17
2023-12-10T02:16:48.080Z,6.11
2023-12-10T02:19:15.180Z,6.18
2023-12-10T02:21:47.376Z,6.16
2023-12-10T02:24:26.985Z,6.38
2023-12-10T02:26:54.248Z,6.48
2023-12-10T02:29:21.221Z,6.51
2023-12-10T02:31:48.112Z,6.46
2023-12-10T02:34:15.122Z,6.60
2023-12-10T02:36:42.091Z,6.79
2023-12-10T02:39:08.994Z,6.65
2023-12-10T02:41:35.884Z,6.54
2023-12-10T02:44:02.838Z,6.58
2023-12-10T02:46:29.705Z,6.57
2023-12-10T02:48:56.659Z,6.58
2023-12-10T02:51:23.645Z,6.67
2023-12-10T02:53:50.607Z,6.68
2023-12-10T02:56:17.537Z,6.76
2023-12-10T02:58:44.382Z,6.73
2023-12-10T03:01:11.602Z,6.67
2023-12-10T03:03:38.816Z,6.47
2023-12-10T03:06:05.862Z,6.33
2023-12-10T03:08:32.734Z,6.23
2023-12-10T03:10:59.810Z,6.31
2023-12-10T03:13:26.789Z,6.37
2023-12-10T03:15:53.766Z,6.49
2023-12-10T03:18:20.905Z,6.52
2023-12-10T03:20:47.843Z,6.60
2023-12-10T03:23:14.771Z,6.61
2023-12-10T03:25:41.785Z,6.66
2023-12-10T03:28:08.745Z,6.64
2023-12-10T03:30:35.940Z,6.62
2023-12-10T03:33:02.959Z,6.45
2023-12-10T03:35:29.911Z,6.58
2023-12-10T03:37:56.742Z,6.62
2023-12-10T03:40:23.625Z,6.67
2023-12-10T03:42:50.652Z,6.75
2023-12-10T03:45:17.599Z,6.72
2023-12-10T03:47:44.568Z,6.71
2023-12-10T03:50:11.666Z,6.66
2023-12-10T03:52:38.571Z,6.65
2023-12-10T03:55:06.340Z,6.62
2023-12-10T03:57:33.371Z,6.59
2023-12-10T04:00:00.418Z,6.57
2023-12-10T04:02:27.502Z,6.40
2023-12-10T04:04:54.579Z,6.44
2023-12-10T04:07:21.534Z,6.36
2023-12-10T04:09:48.454Z,6.38
2023-12-10T04:12:15.455Z,6.35
2023-12-10T04:14:42.375Z,6.43
2023-12-10T04:17:09.286Z,6.41
2023-12-10T04:19:36.431Z,6.36
2023-12-10T04:22:03.397Z,6.36
2023-12-10T04:24:30.278Z,6.60
2023-12-10T04:26:57.169Z,6.59
2023-12-10T04:29:24.092Z,6.43
2023-12-10T04:31:50.947Z,6.32
2023-12-10T04:34:18.035Z,6.31
2023-12-10T04:36:44.979Z,6.40
2023-12-10T04:39:11.934Z,6.36
2023-12-10T04:41:38.911Z,6.24
2023-12-10T04:44:05.906Z,6.19
2023-12-10T04:46:32.763Z,6.30
2023-12-10T04:48:59.831Z,6.39
2023-12-10T04:51:26.833Z,6.44
2023-12-10T04:53:53.708Z,6.54
2023-12-10T04:56:20.576Z,6.62
2023-12-10T04:58:47.493Z,6.61
2023-12-10T05:01:14.471Z,6.63
2023-12-10T05:03:41.488Z,6.61
2023-12-10T05:06:09.142Z,6.67
2023-12-10T05:08:36.116Z,6.57
2023-12-10T05:11:03.046Z,6.59
2023-12-10T05:13:30.684Z,6.48
2023-12-10T05:15:57.678Z,6.54
2023-12-10T05:18:25.842Z,6.46
2023-12-10T05:20:52.806Z,6.46
2023-12-10T05:23:19.727Z,6.51
2023-12-10T05:25:46.616Z,6.54
2023-12-10T05:28:13.525Z,6.61
2023-12-10T05:30:40.435Z,6.42
2023-12-10T05:33:07.557Z,6.42
2023-12-10T05:35:34.468Z,6.41
2023-12-10T05:38:01.398Z,6.39
2023-12-10T05:40:28.393Z,6.43
2023-12-10T05:42:55.329Z,6.34
2023-12-10T05:45:22.297Z,6.38
2023-12-10T05:47:49.331Z,6.28
2023-12-10T05:50:16.279Z,6.47
2023-12-10T05:52:43.179Z,6.39
2023-12-10T05:55:10.059Z,6.26
2023-12-10T05:57:36.947Z,6.28
2023-12-10T06:00:04.534Z,6.22
2023-12-10T06:02:31.920Z,6.17
2023-12-10T06:04:58.782Z,6.17
2023-12-10T06:07:25.650Z,6.34
2023-12-10T06:09:52.625Z,6.39
2023-12-10T06:12:19.550Z,6.25
2023-12-10T06:14:46.406Z,6.36
2023-12-10T06:17:13.284Z,6.30
2023-12-10T06:19:40.270Z,6.30
2023-12-10T06:22:07.229Z,6.38
2023-12-10T06:24:34.099Z,6.38
2023-12-10T06:27:01.016Z,6.43
2023-12-10T06:29:27.919Z,6.42
2023-12-10T06:31:54.792Z,6.44
2023-12-10T06:34:21.816Z,6.46
2023-12-10T06:36:49.007Z,6.37
2023-12-10T06:39:15.910Z,6.40
2023-12-10T06:41:42.918Z,6.42
2023-12-10T06:44:09.865Z,6.50
2023-12-10T06:46:38.143Z,6.47
2023-12-10T06:49:05.071Z,6.34
2023-12-10T06:51:32.018Z,6.43
2023-12-10T06:53:58.958Z,6.57
2023-12-10T06:56:25.852Z,6.50
2023-12-10T06:58:52.741Z,6.52
2023-12-10T07:01:19.655Z,6.59
2023-12-10T07:03:46.701Z,6.61
2023-12-10T07:06:13.761Z,6.36
2023-12-10T07:08:40.611Z,6.57
2023-12-10T07:11:07.457Z,6.69
2023-12-10T07:13:34.316Z,6.56
2023-12-10T07:16:01.258Z,6.66
2023-12-10T07:18:28.270Z,6.67
2023-12-10T07:20:55.172Z,6.62
2023-12-10T07:23:22.033Z,6.71
2023-12-10T07:25:48.929Z,6.95
2023-12-10T07:28:15.803Z,6.94
2023-12-10T07:30:42.753Z,6.83
2023-12-10T07:33:09.785Z,6.79
2023-12-10T07:35:36.707Z,6.76
2023-12-10T07:38:03.657Z,6.72
2023-12-10T07:40:30.524Z,6.74
2023-12-10T07:42:57.434Z,6.73
2023-12-10T07:45:34.533Z,6.72
2023-12-10T07:48:11.662Z,6.73
2023-12-10T07:50:38.585Z,6.76
2023-12-10T07:53:06.273Z,6.83
2023-12-10T07:55:33.420Z,6.75
2023-12-10T07:58:00.421Z,6.88
2023-12-10T08:00:28.506Z,6.92
2023-12-10T08:02:56.863Z,6.89
2023-12-10T08:05:23.849Z,6.93
2023-12-10T08:07:54.956Z,6.93
2023-12-10T08:10:22.029Z,6.95
2023-12-10T08:12:49.946Z,6.93
2023-12-10T08:15:27.227Z,6.84
2023-12-10T08:17:54.245Z,6.90
2023-12-10T08:20:21.160Z,6.98
2023-12-10T08:22:49.458Z,7.03
2023-12-10T08:25:16.353Z,6.97
2023-12-10T08:27:48.004Z,6.86
2023-12-10T08:30:15.041Z,6.80
2023-12-10T08:32:41.996Z,6.73
2023-12-10T08:35:09.016Z,6.49
2023-12-10T08:37:35.936Z,6.30
2023-12-10T08:40:04.058Z,6.26
2023-12-10T08:42:33.960Z,6.29
2023-12-10T08:45:01.088Z,6.44
2023-12-10T08:47:27.964Z,6.53
2023-12-10T08:49:55.483Z,6.56
2023-12-10T08:52:22.358Z,6.78
2023-12-10T08:54:49.181Z,6.83
2023-12-10T08:57:16.267Z,6.93
2023-12-10T08:59:43.190Z,6.87
2023-12-10T09:02:10.082Z,6.99
2023-12-10T09:04:36.924Z,6.87
2023-12-10T09:07:03.927Z,7.02
2023-12-10T09:09:30.833Z,7.07
2023-12-10T09:12:00.420Z,7.15
2023-12-10T09:14:27.312Z,7.30
2023-12-10T09:16:56.105Z,7.37
2023-12-10T09:19:23.124Z,7.43
2023-12-10T09:21:50.212Z,7.69
2023-12-10T09:24:20.080Z,7.79
2023-12-10T09:26:46.977Z,8.06
2023-12-10T09:29:13.815Z,8.04
2023-12-10T09:31:40.717Z,7.96
2023-12-10T09:34:07.646Z,7.91
2023-12-10T09:36:34.495Z,7.62
2023-12-10T09:39:01.465Z,7.53
2023-12-10T09:41:28.261Z,7.20
2023-12-10T09:43:55.085Z,7.07
2023-12-10T09:46:23.343Z,7.03
2023-12-10T09:48:51.607Z,7.09
2023-12-10T09:51:19.912Z,7.24
2023-12-10T09:53:47.730Z,7.26
2023-12-10T09:56:14.633Z,7.27
2023-12-10T09:58:41.519Z,7.33
2023-12-10T10:01:12.640Z,7.52
2023-12-10T10:03:39.571Z,7.91
2023-12-10T10:06:06.615Z,7.89
2023-12-10T10:08:33.527Z,7.86
2023-12-10T10:11:00.426Z,7.80
2023-12-10T10:13:27.361Z,7.96
2023-12-10T10:15:55.977Z,8.02
2023-12-10T10:18:33.180Z,7.93
2023-12-10T10:21:00.111Z,7.95
2023-12-10T10:23:27.284Z,7.79
2023-12-10T10:25:54.266Z,7.92
2023-12-10T10:28:31.734Z,8.01
2023-12-10T10:31:21.034Z,8.27
2023-12-10T10:33:47.224Z,8.32
2023-12-10T10:36:19.122Z,8.10
2023-12-10T10:38:46.310Z,8.06
2023-12-10T10:41:14.604Z,8.07
2023-12-10T10:43:45.985Z,8.14
2023-12-10T10:46:12.948Z,8.47
2023-12-10T10:48:42.331Z,9.10
2023-12-10T10:51:32.874Z,8.99
2023-12-10T10:54:01.211Z,9.84
2023-12-10T10:56:30.149Z,9.84
2023-12-10T10:58:56.999Z,9.86
2023-12-10T11:01:44.830Z,10.59
2023-12-10T11:04:17.337Z,10.27
2023-12-10T11:06:48.436Z,10.27
2023-12-10T11:09:17.957Z,10.24
2023-12-10T11:11:45.040Z,10.26
2023-12-10T11:14:23.032Z,10.49
2023-12-10T11:16:50.563Z,10.44
2023-12-10T11:19:17.824Z,10.42
2023-12-10T11:21:46.451Z,10.98
2023-12-10T11:24:13.385Z,10.93
2023-12-10T11:26:40.325Z,10.97
2023-12-10T11:29:09.489Z,11.13
2023-12-10T11:31:40.513Z,10.46
2023-12-10T11:34:07.556Z,10.08
2023-12-10T11:36:38.746Z,10.13
2023-12-10T11:39:12.593Z,10.34
2023-12-10T11:41:48.719Z,10.34
2023-12-10T11:44:23.292Z,10.43
2023-12-10T11:46:52.751Z,10.27
2023-12-10T11:49:21.174Z,10.06
2023-12-10T11:51:49.039Z,10.07
2023-12-10T11:54:16.333Z,9.87
2023-12-10T11:56:43.451Z,10.11
2023-12-10T11:59:12.349Z,10.05
2023-12-10T12:01:40.074Z,10.06
2023-12-10T12:04:07.079Z,10.11
2023-12-10T12:06:41.915Z,10.10
2023-12-10T12:09:09.329Z,10.03
2023-12-10T12:11:36.205Z,10.01
2023-12-10T12:14:03.562Z,10.16
2023-12-10T12:16:30.623Z,9.94
2023-12-10T12:18:57.584Z,9.41
2023-12-10T12:21:24.518Z,9.48
2023-12-10T12:23:51.336Z,9.34
2023-12-10T12:26:18.163Z,9.30
2023-12-10T12:28:47.784Z,9.26
2023-12-10T12:31:15.403Z,9.41
2023-12-10T12:33:42.292Z,9.28
2023-12-10T12:36:09.483Z,9.16
2023-12-10T12:38:36.365Z,9.35
2023-12-10T12:41:03.232Z,9.10
2023-12-10T12:43:30.003Z,9.00
2023-12-10T12:45:56.842Z,9.05
2023-12-10T12:51:09.026Z,9.18
2023-12-10T12:54:10.357Z,9.31
2023-12-10T12:56:22.671Z,9.38
2023-12-10T12:58:50.931Z,9.36
2023-12-10T13:01:17.996Z,9.48
2023-12-10T13:03:55.464Z,9.43
2023-12-10T13:06:22.506Z,9.59
2023-12-10T13:08:49.360Z,9.76
2023-12-10T13:11:16.200Z,9.72
2023-12-10T13:13:42.990Z,9.56
2023-12-10T13:16:09.865Z,9.43
2023-12-10T13:18:36.739Z,9.36
2023-12-10T13:21:09.759Z,9.41
2023-12-10T13:23:47.981Z,9.68
2023-12-10T13:26:15.157Z,9.70
2023-12-10T13:28:41.971Z,9.70
2023-12-10T13:31:08.762Z,9.71
2023-12-10T13:33:35.684Z,9.74
2023-12-10T13:36:02.613Z,9.75
2023-12-10T13:38:29.401Z,9.84
2023-12-10T13:40:57.055Z,9.81
2023-12-10T13:43:23.925Z,9.57
2023-12-10T13:45:50.844Z,9.74
2023-12-10T13:48:17.755Z,9.77
2023-12-10T13:50:44.626Z,9.75
2023-12-10T13:53:11.449Z,9.82
2023-12-10T13:55:38.229Z,9.93
2023-12-10T13:58:05.336Z,10.05
2023-12-10T14:00:32.353Z,10.01
2023-12-10T14:02:59.242Z,9.90
2023-12-10T14:05:26.123Z,9.96
2023-12-10T14:07:52.985Z,9.77
2023-12-10T14:10:19.895Z,9.77
2023-12-10T14:12:46.769Z,9.77
2023-12-10T14:15:13.637Z,9.75
2023-12-10T14:17:40.834Z,9.75
2023-12-10T14:20:08.425Z,9.79
2023-12-10T14:22:35.228Z,9.77
2023-12-10T14:25:02.402Z,9.65
2023-12-10T14:27:29.675Z,9.65
2023-12-10T14:29:56.631Z,9.74
2023-12-10T14:32:23.416Z,9.65
2023-12-10T14:34:50.304Z,9.64
2023-12-10T14:37:17.169Z,9.71
2023-12-10T14:39:43.967Z,9.60
2023-12-10T14:42:10.783Z,9.55
2023-12-10T14:44:37.601Z,9.58
2023-12-10T14:47:04.467Z,9.48
2023-12-10T14:49:31.264Z,9.42
2023-12-10T14:51:58.089Z,9.47
2023-12-10T14:54:25.496Z,9.54
2023-12-10T14:56:52.426Z,9.45
2023-12-10T14:59:19.926Z,9.41
2023-12-10T15:01:58.653Z,9.36
2023-12-10T15:04:33.193Z,9.22
2023-12-10T15:07:00.084Z,9.16
2023-12-10T15:09:26.997Z,9.05
2023-12-10T15:11:53.863Z,9.01
2023-12-10T15:14:20.675Z,8.83
2023-12-10T15:16:47.465Z,8.85
2023-12-10T15:19:14.465Z,8.84
2023-12-10T15:21:41.371Z,8.81
2023-12-10T15:24:08.163Z,8.89
2023-12-10T15:26:34.950Z,8.81
2023-12-10T15:29:01.770Z,8.90
2023-12-10T15:31:28.573Z,8.82
2023-12-10T15:33:55.588Z,8.73
2023-12-10T15:36:22.467Z,8.70
2023-12-10T15:38:49.266Z,8.68
2023-12-10T15:41:16.072Z,8.57
2023-12-10T15:43:42.880Z,8.64
2023-12-10T15:46:09.772Z,8.60
2023-12-10T15:48:36.837Z,8.83
2023-12-10T15:51:03.919Z,8.91
2023-12-10T15:53:30.717Z,8.95
2023-12-10T15:55:57.500Z,9.08
2023-12-10T15:58:24.294Z,8.87
2023-12-10T16:00:51.187Z,8.79
2023-12-10T16:03:18.098Z,8.77
2023-12-10T16:05:45.014Z,8.61
2023-12-10T16:08:11.868Z,8.62
2023-12-10T16:10:38.720Z,8.64
2023-12-10T16:13:05.552Z,8.62
2023-12-10T16:15:32.537Z,8.63
2023-12-10T16:17:59.599Z,8.68
2023-12-10T16:20:26.557Z,8.62
2023-12-10T16:22:53.388Z,8.48
2023-12-10T16:25:20.208Z,8.51
2023-12-10T16:27:47.167Z,8.47
2023-12-10T16:30:14.041Z,8.46
2023-12-10T16:32:41.040Z,8.47
2023-12-10T16:35:08.250Z,7.51
2023-12-10T16:37:35.176Z,7.74
2023-12-10T16:40:03.098Z,7.58
2023-12-10T16:42:30.090Z,7.30
2023-12-10T16:44:57.506Z,7.38
2023-12-10T16:47:24.736Z,7.40
2023-12-10T16:49:52.389Z,7.35
2023-12-10T16:52:19.392Z,7.11
2023-12-10T16:54:46.193Z,7.71
2023-12-10T16:57:13.004Z,7.88
2023-12-10T16:59:39.784Z,7.98
2023-12-10T17:02:06.823Z,7.90
2023-12-10T17:04:34.037Z,8.06
2023-12-10T17:07:00.977Z,8.13
2023-12-10T17:09:27.804Z,7.98
2023-12-10T17:11:54.636Z,8.03
2023-12-10T17:14:22.052Z,8.23
2023-12-10T17:16:48.886Z,8.21
2023-12-10T17:19:17.776Z,8.05
2023-12-10T17:21:46.190Z,8.12
2023-12-10T17:24:17.225Z,8.10
2023-12-10T17:26:44.048Z,7.91
2023-12-10T17:29:11.011Z,8.05
2023-12-10T17:31:37.807Z,7.79
2023-12-10T17:34:05.010Z,7.54
2023-12-10T17:36:31.934Z,7.28
2023-12-10T17:38:58.731Z,7.70
2023-12-10T17:41:25.515Z,7.73
2023-12-10T17:43:52.327Z,7.88
2023-12-10T17:46:19.134Z,7.99
2023-12-10T17:48:48.056Z,7.98
2023-12-10T17:51:17.106Z,8.01
2023-12-10T17:53:43.977Z,8.05
2023-12-10T17:56:10.904Z,7.94
2023-12-10T17:58:37.713Z,8.05
2023-12-10T18:01:04.664Z,8.21
2023-12-10T18:03:31.634Z,8.06
2023-12-10T18:05:58.716Z,8.12
2023-12-10T18:08:25.518Z,8.20
2023-12-10T18:10:52.384Z,8.19
2023-12-10T18:13:19.276Z,8.23
2023-12-10T18:15:46.126Z,8.19
2023-12-10T18:18:12.971Z,8.20
2023-12-10T18:20:39.795Z,8.17
2023-12-10T18:23:06.585Z,8.23
2023-12-10T18:25:33.376Z,8.38
2023-12-10T18:28:00.357Z,8.16
2023-12-10T18:30:27.256Z,8.39
2023-12-10T18:32:54.084Z,8.33
2023-12-10T18:35:20.935Z,8.29
2023-12-10T18:37:47.724Z,8.04
2023-12-10T18:40:14.616Z,8.31
2023-12-10T18:42:41.488Z,8.30
2023-12-10T18:45:08.575Z,8.20
2023-12-10T18:47:35.407Z,8.23
2023-12-10T18:50:02.420Z,8.25
2023-12-10T18:52:29.285Z,8.24
2023-12-10T18:54:56.162Z,8.19
2023-12-10T18:57:22.994Z,8.43
2023-12-10T18:59:49.806Z,8.32
2023-12-10T19:02:16.626Z,8.55
2023-12-10T19:04:43.477Z,8.64
2023-12-10T19:07:10.300Z,8.57
2023-12-10T19:09:37.290Z,8.51
2023-12-10T19:12:04.214Z,8.49
2023-12-10T19:14:32.791Z,8.38
2023-12-10T19:17:01.012Z,8.30
2023-12-10T19:19:27.898Z,8.30
2023-12-10T19:21:54.895Z,8.36
2023-12-10T19:24:21.688Z,8.43
2023-12-10T19:26:48.493Z,8.57
2023-12-10T19:29:15.287Z,8.70
2023-12-10T19:31:42.078Z,8.34
2023-12-10T19:34:08.976Z,8.40
2023-12-10T19:36:35.834Z,8.21
2023-12-10T19:39:02.637Z,8.23
2023-12-10T19:41:29.422Z,8.36
2023-12-10T19:43:56.202Z,8.43
2023-12-10T19:46:22.987Z,8.47
2023-12-10T19:48:49.831Z,8.35
2023-12-10T19:51:16.999Z,8.26
2023-12-10T19:53:43.788Z,8.39
2023-12-10T19:56:10.835Z,8.52
2023-12-10T19:58:37.777Z,8.38
2023-12-10T20:01:04.867Z,8.33
2023-12-10T20:03:33.359Z,8.15
2023-12-10T20:06:00.384Z,8.22
2023-12-10T20:08:27.318Z,8.26
2023-12-10T20:10:54.177Z,8.24
2023-12-10T20:13:21.035Z,8.23
2023-12-10T20:15:47.951Z,8.27
2023-12-10T20:18:17.806Z,8.25
2023-12-10T20:20:45.714Z,8.23
2023-12-10T20:23:12.490Z,8.21
2023-12-10T20:25:39.300Z,8.18
2023-12-10T20:28:06.156Z,8.20
2023-12-10T20:30:33.358Z,8.16
2023-12-10T20:33:00.592Z,8.27
2023-12-10T20:35:27.617Z,8.28
2023-12-10T20:37:54.500Z,8.26
2023-12-10T20:40:21.292Z,8.29
2023-12-10T20:42:48.206Z,8.27
2023-12-10T20:45:15.139Z,8.35
2023-12-10T20:47:42.120Z,8.36
2023-12-10T20:50:09.324Z,8.27
2023-12-10T20:52:36.301Z,7.97
2023-12-10T20:55:03.207Z,7.98
2023-12-10T20:57:30.231Z,8.05
2023-12-10T20:59:57.210Z,8.00
2023-12-10T21:02:29.345Z,7.77
2023-12-10T21:04:57.144Z,7.78
2023-12-10T21:07:24.056Z,7.69
2023-12-10T21:09:51.033Z,7.46
2023-12-10T21:12:17.894Z,7.40
2023-12-10T21:14:44.680Z,7.43
2023-12-10T21:17:14.838Z,7.60
2023-12-10T21:19:43.770Z,7.60
2023-12-10T21:22:10.713Z,7.72
2023-12-10T21:24:37.561Z,7.75
2023-12-10T21:27:04.514Z,7.60
2023-12-10T21:29:31.292Z,7.68
2023-12-10T21:31:58.058Z,7.79
2023-12-10T21:34:24.934Z,7.89
2023-12-10T21:36:51.846Z,7.75
2023-12-10T21:39:18.659Z,7.82
2023-12-10T21:41:45.506Z,7.94
2023-12-10T21:44:12.272Z,7.85
2023-12-10T21:46:39.054Z,7.99
2023-12-10T21:49:06.115Z,8.06
2023-12-10T21:51:33.053Z,8.00
2023-12-10T21:53:59.935Z,8.18
2023-12-10T21:56:26.709Z,8.19
2023-12-10T21:58:53.483Z,8.08
2023-12-10T22:01:21.675Z,8.16
2023-12-10T22:03:48.906Z,7.91
2023-12-10T22:06:15.757Z,7.91
2023-12-10T22:08:42.548Z,8.03
2023-12-10T22:11:09.502Z,7.77
2023-12-10T22:13:36.358Z,7.91
2023-12-10T22:16:03.184Z,7.74
2023-12-10T22:18:30.053Z,7.81
2023-12-10T22:20:56.909Z,7.78
2023-12-10T22:23:23.682Z,7.48
2023-12-10T22:25:50.563Z,7.78
2023-12-10T22:28:17.341Z,7.76
2023-12-10T22:30:44.229Z,7.81
2023-12-10T22:33:11.109Z,7.93
2023-12-10T22:35:39.093Z,7.77
2023-12-10T22:38:05.901Z,7.55
2023-12-10T22:40:32.670Z,7.60
2023-12-10T22:42:59.489Z,7.57
2023-12-10T22:45:26.385Z,7.67
2023-12-10T22:47:53.457Z,7.60
2023-12-10T22:50:20.343Z,7.70
2023-12-10T22:52:47.521Z,7.82
2023-12-10T22:55:14.492Z,7.98
2023-12-10T22:57:41.356Z,7.92
2023-12-10T23:00:09.036Z,7.77
2023-12-10T23:02:35.799Z,7.82
2023-12-10T23:05:02.750Z,7.83
2023-12-10T23:07:29.853Z,8.03
2023-12-10T23:09:56.877Z,7.90
2023-12-10T23:12:23.739Z,8.24
2023-12-10T23:14:50.545Z,7.83
2023-12-10T23:17:17.306Z,7.96
2023-12-10T23:19:44.158Z,8.04
2023-12-10T23:22:11.157Z,8.13
2023-12-10T23:24:38.050Z,7.69
2023-12-10T23:27:05.014Z,7.79
2023-12-10T23:29:31.833Z,7.67
2023-12-10T23:31:58.649Z,7.62
2023-12-10T23:34:25.467Z,7.66
2023-12-10T23:36:52.305Z,7.60
2023-12-10T23:39:19.134Z,7.69
2023-12-10T23:41:45.884Z,7.92
2023-12-10T23:44:12.664Z,7.89
2023-12-10T23:46:39.468Z,7.82
2023-12-10T23:49:06.316Z,7.88
2023-12-10T23:51:33.255Z,7.97
2023-12-10T23:54:00.042Z,7.90
2023-12-10T23:56:29.589Z,7.86
2023-12-10T23:58:57.207Z,8.10
